Yarmouth Port, MA

6:39 AM EDT on March 24, 2017 (GMT -0400)
WA1FSC - Yarmouth Port | | Change Station

Elev 33 ft 41.71 °N, 70.23 °W | Updated 54 seconds ago

Clear
Clear
21.3 °F
Feels Like 21 °F
N
0.0
Wind Variable Wind from SE

Today
High -- | Low -- °F
--% Chance of Precip.
Yesterday
High -- | Low -- °F
Precip. -- in
Pressure 30.50 in
Visibility 10.0 miles
Clouds Clear
Windchill 21 °F
Dew Point 13 °F
Humidity 70%
Rainfall 0.00 in
Snow Depth Not available.
6:37 AM 6:57 PM
Waning Crescent, 16% visible
METAR KHYA 240956Z AUTO 00000KT 10SM CLR M06/M12 A3049 RMK AO2 SLP328 T10561117 TSNO
Pressure 30.50 in
Visibility 10.0 miles
Clouds Clear
Windchill 21 °F
Dew Point 13 °F
Humidity 70%
Rainfall 0.00 in
Snow Depth Not available.
6:37 AM 6:57 PM
Waning Crescent, 16% visible
METAR KHYA 240956Z AUTO 00000KT 10SM CLR M06/M12 A3049 RMK AO2 SLP328 T10561117 TSNO

Get Severe Weather Alerts

Thanks for signing up!

Be on the lookout for a verification email in your inbox.

You'll start receiving the daily forecast at 8 AM.

×

10-Day Weather Forecast

Almanac

Astronomy

Mar. 24, 2017 Rise Set
Actual Time
Civil Twilight
Nautical Twilight
Astronomical Twilight
Moon
Length of Visible Light
Length of Day
Tomorrow will be .
, % of the Moon is Illuminated

Today's Extremes

State Highs State Lows

Community

WunderPhotos

Upload Photos

1,962,540 photos uploaded!

WunderBlog® & News

Nearby

Air Quality

  Air Quality AQ Index Pollutant
Not available.

Snow Depth

Station Depth Elevation

Earthquake Activity

City Distance Mag. Time & Date
Minimum magnitude displayed is 2.5.

Earthquake Activity

City Distance Mag. Time & Date
Minimum magnitude displayed is 2.5.

Coastal Water Temperatures

Place Temperature

Stations

Nearby Weather Stations

Station Location Temp. Windchill Dew Point Humidity Wind Precip. Elev Updated Type
                   

Watches & Warnings

There are currently no watches in effect.